PWSweather.com
Personal Weather Stations
Station Observations
PRATO
PratoIT 59100

PratoIT 59100

Lat: 43.8956799, Lon: 11.0845155

Elevation: 164

Station Type: Davis Vantage Vue

http://www.meteoprato.it

Latest ConditionsUpdated 8:25:00 AM GMT+01:01 Saturday, Jan 18, 2020
Currently Today's Max Today's Min Today's Average
Temperature 45.9°F7.7°C 47.1°F8.4°C 45.3°F7.4°C 46.3°F7.9°C
Dew Point 42.5°F5.8°C 45.7°F7.6°C 42.2°F5.7°C 44.3°F6.8°C
Winds Calm Calm 5.8 mph -9.3 kmh - - 0.9 mph 1.4 kmh
Wind Gusts 3.0 mph4.8 kmh 11.0 mph17.7 kmh - -
Humidity 88% 95% 88% 93%
Pressure 30.14 in1020.7 mb 30.19 in1022.4 mb 30.11 in1019.6 mb -
Precipitation - 0.64 in16.3 mm - -
Hour Temp Dew Point Humidity Winds Wind Gusts Pressure Precip Precip Rate Daily Precip Total
08:25 AM 45.9°F7.7°C 42.5°F5.8°C 88% Calm Calm 3.0 mph4.8 kmh 30.14 in1020.7 mb 0.00 in0.0 mm 0.00 in0.0 mm 0.64 in16.3 mm
08:20 AM 45.9°F7.7°C 42.8°F6.0°C 89% Calm Calm 4.0 mph6.4 kmh 30.14 in1020.7 mb 0.00 in0.0 mm 0.00 in0.0 mm 0.64 in16.3 mm
08:15 AM 45.7°F7.6°C 42.6°F5.9°C 89% Calm Calm 4.0 mph6.4 kmh 30.13 in1020.3 mb 0.00 in0.0 mm 0.00 in0.0 mm 0.64 in16.3 mm
08:10 AM 45.5°F7.5°C 42.4°F5.8°C 89% Calm Calm -- 30.14 in1020.7 mb 0.00 in0.0 mm 0.00 in0.0 mm 0.64 in16.3 mm
08:05 AM 45.3°F7.4°C 42.2°F5.7°C 89% Calm Calm -- 30.13 in1020.3 mb 0.00 in0.0 mm 0.00 in0.0 mm 0.64 in16.3 mm
08:00 AM 45.4°F7.4°C 42.3°F5.7°C 89% Calm Calm -- 30.13 in1020.3 mb 0.00 in0.0 mm 0.00 in0.0 mm 0.64 in16.3 mm
07:55 AM 45.5°F7.5°C 42.4°F5.8°C 89% Calm Calm -- 30.13 in1020.3 mb 0.00 in0.0 mm 0.00 in0.0 mm 0.64 in16.3 mm
07:50 AM 45.7°F7.6°C 42.6°F5.9°C 89% Calm Calm 4.0 mph6.4 kmh 30.13 in1020.3 mb 0.00 in0.0 mm 0.00 in0.0 mm 0.64 in16.3 mm
07:45 AM 45.7°F7.6°C 42.6°F5.9°C 89% Calm Calm 4.0 mph6.4 kmh 30.12 in1020.0 mb 0.00 in0.0 mm 0.00 in0.0 mm 0.64 in16.3 mm
07:40 AM 45.8°F7.7°C 42.7°F5.9°C 89% Calm Calm -- 30.12 in1020.0 mb 0.00 in0.0 mm 0.00 in0.0 mm 0.64 in16.3 mm
07:35 AM 45.8°F7.7°C 42.7°F5.9°C 89% Calm Calm -- 30.13 in1020.3 mb 0.00 in0.0 mm 0.00 in0.0 mm 0.64 in16.3 mm
07:30 AM 45.9°F7.7°C 42.8°F6.0°C 89% 0.2 mph 0.3 kmh -- 30.13 in1020.3 mb 0.00 in0.0 mm 0.00 in0.0 mm 0.64 in16.3 mm
07:25 AM 46.0°F7.8°C 42.6°F5.9°C 88% 1.1 mph NE1.8 kmh NE 2.0 mph3.2 kmh 30.13 in1020.3 mb 0.00 in0.0 mm 0.00 in0.0 mm 0.64 in16.3 mm
07:20 AM 46.1°F7.8°C 42.7°F5.9°C 88% 1.9 mph NE3.1 kmh NE 4.0 mph6.4 kmh 30.13 in1020.3 mb 0.00 in0.0 mm 0.00 in0.0 mm 0.64 in16.3 mm
07:15 AM 46.3°F7.9°C 42.9°F6.1°C 88% 2.0 mph NE3.2 kmh NE 6.0 mph9.7 kmh 30.13 in1020.3 mb 0.00 in0.0 mm 0.00 in0.0 mm 0.64 in16.3 mm
07:10 AM 46.3°F7.9°C 42.9°F6.1°C 88% 1.9 mph NE3.1 kmh NE 6.0 mph9.7 kmh 30.13 in1020.3 mb 0.01 in0.3 mm 0.00 in0.0 mm 0.64 in16.3 mm
07:05 AM 46.2°F7.9°C 43.1°F6.2°C 89% 1.4 mph NE2.3 kmh NE 9.0 mph14.5 kmh 30.13 in1020.3 mb 0.01 in0.3 mm 0.00 in0.0 mm 0.64 in16.3 mm
07:00 AM 46.1°F7.8°C 43.3°F6.3°C 90% 1.0 mph NE1.6 kmh NE 9.0 mph14.5 kmh 30.14 in1020.7 mb 0.01 in0.3 mm 0.00 in0.0 mm 0.64 in16.3 mm
06:55 AM 46.2°F7.9°C 43.4°F6.3°C 90% 1.5 mph NE2.4 kmh NE 4.0 mph6.4 kmh 30.13 in1020.3 mb 0.01 in0.3 mm 0.00 in0.0 mm 0.64 in16.3 mm
06:50 AM 46.1°F7.8°C 43.3°F6.3°C 90% 2.0 mph NE3.2 kmh NE 7.0 mph11.3 kmh 30.13 in1020.3 mb 0.01 in0.3 mm 0.00 in0.0 mm 0.64 in16.3 mm
06:45 AM 46.4°F8.0°C 43.6°F6.4°C 90% 2.0 mph NE3.2 kmh NE 7.0 mph11.3 kmh 30.12 in1020.0 mb 0.01 in0.3 mm 0.00 in0.0 mm 0.64 in16.3 mm
06:40 AM 46.5°F8.1°C 43.4°F6.3°C 89% 1.7 mph NE2.7 kmh NE 5.0 mph8.0 kmh 30.13 in1020.3 mb 0.01 in0.3 mm 0.00 in0.0 mm 0.64 in16.3 mm
06:35 AM 46.4°F8.0°C 43.3°F6.3°C 89% 0.9 mph NE1.4 kmh NE 6.0 mph9.7 kmh 30.13 in1020.3 mb 0.01 in0.3 mm 0.00 in0.0 mm 0.64 in16.3 mm
06:30 AM 46.3°F7.9°C 43.2°F6.2°C 89% 1.2 mph NE1.9 kmh NE 6.0 mph9.7 kmh 30.13 in1020.3 mb 0.01 in0.3 mm 0.00 in0.0 mm 0.64 in16.3 mm
06:25 AM 46.4°F8.0°C 43.3°F6.3°C 89% 2.7 mph NE4.3 kmh NE 5.0 mph8.0 kmh 30.12 in1020.0 mb 0.01 in0.3 mm 0.00 in0.0 mm 0.64 in16.3 mm
06:20 AM 46.5°F8.1°C 43.4°F6.3°C 89% 3.7 mph NE6.0 kmh NE 7.0 mph11.3 kmh 30.12 in1020.0 mb 0.01 in0.3 mm 0.00 in0.0 mm 0.64 in16.3 mm
06:15 AM 46.5°F8.1°C 43.4°F6.3°C 89% 4.1 mph NE6.6 kmh NE 7.0 mph11.3 kmh 30.11 in1019.6 mb 0.01 in0.3 mm 0.12 in3.0 mm 0.64 in16.3 mm
06:10 AM 46.3°F7.9°C 43.5°F6.4°C 90% 4.4 mph NE7.1 kmh NE 8.0 mph12.9 kmh 30.11 in1019.6 mb 0.00 in0.0 mm 0.00 in0.0 mm 0.63 in16.0 mm
06:05 AM 46.3°F7.9°C 43.8°F6.6°C 91% 4.0 mph NE6.4 kmh NE 8.0 mph12.9 kmh 30.11 in1019.6 mb 0.00 in0.0 mm 0.00 in0.0 mm 0.63 in16.0 mm
06:00 AM 46.1°F7.8°C 43.6°F6.4°C 91% 3.0 mph NE4.8 kmh NE 8.0 mph12.9 kmh 30.11 in1019.6 mb 0.00 in0.0 mm 0.00 in0.0 mm 0.63 in16.0 mm
05:55 AM 46.0°F7.8°C 43.8°F6.6°C 92% 2.1 mph NE3.4 kmh NE 7.0 mph11.3 kmh 30.12 in1020.0 mb 0.00 in0.0 mm 0.00 in0.0 mm 0.63 in16.0 mm
05:50 AM 45.9°F7.7°C 43.7°F6.5°C 92% 0.9 mph NE1.4 kmh NE 6.0 mph9.7 kmh 30.12 in1020.0 mb 0.01 in0.3 mm 0.00 in0.0 mm 0.63 in16.0 mm
05:45 AM 45.8°F7.7°C 43.9°F6.6°C 93% 0.1 mph NE0.2 kmh NE 5.0 mph8.0 kmh 30.12 in1020.0 mb 0.02 in0.5 mm 0.00 in0.0 mm 0.63 in16.0 mm
05:40 AM 45.7°F7.6°C 43.8°F6.6°C 93% Calm Calm -- 30.12 in1020.0 mb 0.05 in1.3 mm 0.00 in0.0 mm 0.63 in16.0 mm
05:35 AM 45.9°F7.7°C 44.0°F6.7°C 93% Calm Calm -- 30.12 in1020.0 mb 0.09 in2.3 mm 0.00 in0.0 mm 0.63 in16.0 mm
05:30 AM 45.9°F7.7°C 44.0°F6.7°C 93% Calm Calm -- 30.12 in1020.0 mb 0.10 in2.5 mm 0.00 in0.0 mm 0.63 in16.0 mm
05:25 AM 45.9°F7.7°C 44.0°F6.7°C 93% Calm Calm -- 30.12 in1020.0 mb 0.13 in3.3 mm 0.00 in0.0 mm 0.63 in16.0 mm
05:20 AM 46.0°F7.8°C 44.1°F6.7°C 93% 0.1 mph 0.2 kmh -- 30.11 in1019.6 mb 0.17 in4.3 mm 0.00 in0.0 mm 0.63 in16.0 mm
05:15 AM 46.1°F7.8°C 44.2°F6.8°C 93% 0.8 mph NNE1.3 kmh NNE 2.0 mph3.2 kmh 30.11 in1019.6 mb 0.20 in5.1 mm 0.00 in0.0 mm 0.63 in16.0 mm
05:10 AM 46.1°F7.8°C 44.2°F6.8°C 93% 2.1 mph NE3.4 kmh NE 3.0 mph4.8 kmh 30.11 in1019.6 mb 0.24 in6.1 mm 0.00 in0.0 mm 0.63 in16.0 mm
05:05 AM 46.2°F7.9°C 44.3°F6.8°C 93% 3.4 mph NE5.5 kmh NE 6.0 mph9.7 kmh 30.11 in1019.6 mb 0.27 in6.9 mm 0.00 in0.0 mm 0.63 in16.0 mm
05:00 AM 46.1°F7.8°C 44.2°F6.8°C 93% 4.0 mph NE6.4 kmh NE 7.0 mph11.3 kmh 30.11 in1019.6 mb 0.30 in7.6 mm 0.00 in0.0 mm 0.63 in16.0 mm
04:55 AM 46.1°F7.8°C 44.5°F6.9°C 94% 4.0 mph NE6.4 kmh NE 7.0 mph11.3 kmh 30.11 in1019.6 mb 0.32 in8.1 mm 0.00 in0.0 mm 0.63 in16.0 mm
04:50 AM 46.2°F7.9°C 44.6°F7.0°C 94% 3.6 mph NE5.8 kmh NE 7.0 mph11.3 kmh 30.12 in1020.0 mb 0.35 in8.9 mm 0.00 in0.0 mm 0.61 in15.5 mm
04:45 AM 46.3°F7.9°C 44.7°F7.1°C 94% 2.5 mph NE4.0 kmh NE 7.0 mph11.3 kmh 30.13 in1020.3 mb 0.35 in8.9 mm 0.00 in0.0 mm 0.60 in15.2 mm
04:40 AM 46.4°F8.0°C 45.0°F7.2°C 95% 1.5 mph NE2.4 kmh NE 7.0 mph11.3 kmh 30.13 in1020.3 mb 0.35 in8.9 mm 0.24 in6.1 mm 0.57 in14.5 mm
04:35 AM 46.5°F8.1°C 45.1°F7.3°C 95% 1.3 mph NE2.1 kmh NE 6.0 mph9.7 kmh 30.14 in1020.7 mb 0.33 in8.4 mm 0.00 in0.0 mm 0.54 in13.7 mm
04:30 AM 46.6°F8.1°C 45.2°F7.3°C 95% 1.1 mph NE1.8 kmh NE 4.0 mph6.4 kmh 30.14 in1020.7 mb 0.33 in8.4 mm 0.12 in3.0 mm 0.52 in13.2 mm
04:25 AM 46.7°F8.2°C 45.3°F7.4°C 95% 0.4 mph NE0.6 kmh NE 4.0 mph6.4 kmh 30.14 in1020.7 mb 0.32 in8.1 mm 0.12 in3.0 mm 0.50 in12.7 mm
04:20 AM 46.8°F8.2°C 45.4°F7.4°C 95% Calm Calm 3.0 mph4.8 kmh 30.15 in1021.0 mb 0.31 in7.9 mm 0.24 in6.1 mm 0.46 in11.7 mm
04:15 AM 46.8°F8.2°C 45.4°F7.4°C 95% Calm Calm -- 30.15 in1021.0 mb 0.29 in7.4 mm 0.00 in0.0 mm 0.42 in10.7 mm
04:10 AM 46.7°F8.2°C 45.3°F7.4°C 95% Calm Calm -- 30.16 in1021.3 mb 0.31 in7.9 mm 0.00 in0.0 mm 0.39 in9.9 mm
04:05 AM 46.7°F8.2°C 45.3°F7.4°C 95% Calm Calm -- 30.15 in1021.0 mb 0.32 in8.1 mm 0.12 in3.0 mm 0.35 in8.9 mm
04:00 AM 46.7°F8.2°C 45.3°F7.4°C 95% 0.5 mph 0.8 kmh -- 30.15 in1021.0 mb 0.31 in7.9 mm 0.02 in0.5 mm 0.33 in8.4 mm
03:55 AM 46.7°F8.2°C 45.3°F7.4°C 95% 1.0 mph NE1.6 kmh NE 2.0 mph3.2 kmh 30.15 in1021.0 mb 0.29 in7.4 mm 0.24 in6.1 mm 0.30 in7.6 mm
03:50 AM 46.8°F8.2°C 45.2°F7.3°C 94% 0.6 mph NE1.0 kmh NE 3.0 mph4.8 kmh 30.15 in1021.0 mb 0.27 in6.9 mm 0.24 in6.1 mm 0.27 in6.9 mm
03:45 AM 46.9°F8.3°C 45.3°F7.4°C 94% 0.1 mph NE0.2 kmh NE 3.0 mph4.8 kmh 30.15 in1021.0 mb 0.25 in6.4 mm 0.24 in6.1 mm 0.25 in6.4 mm
03:40 AM 47.1°F8.4°C 45.7°F7.6°C 95% Calm Calm 2.0 mph3.2 kmh 30.16 in1021.3 mb 0.23 in5.8 mm 0.24 in6.1 mm 0.23 in5.8 mm
03:35 AM 47.1°F8.4°C 45.7°F7.6°C 95% 0.5 mph WSW0.8 kmh WSW 1.0 mph1.6 kmh 30.15 in1021.0 mb 0.21 in5.3 mm 0.24 in6.1 mm 0.21 in5.3 mm
03:30 AM 47.0°F8.3°C 45.6°F7.6°C 95% 1.4 mph WSW2.3 kmh WSW 4.0 mph6.4 kmh 30.16 in1021.3 mb 0.19 in4.8 mm 0.24 in6.1 mm 0.19 in4.8 mm
03:25 AM 46.9°F8.3°C 45.5°F7.5°C 95% 2.5 mph WSW4.0 kmh WSW 6.0 mph9.7 kmh 30.15 in1021.0 mb 0.17 in4.3 mm 0.36 in9.1 mm 0.17 in4.3 mm
03:20 AM 46.7°F8.2°C 45.3°F7.4°C 95% 4.2 mph WSW6.8 kmh WSW 6.0 mph9.7 kmh 30.16 in1021.3 mb 0.14 in3.6 mm 0.12 in3.0 mm 0.14 in3.6 mm
03:15 AM 46.5°F8.1°C 45.1°F7.3°C 95% 5.8 mph SW9.3 kmh SW 8.0 mph12.9 kmh 30.16 in1021.3 mb 0.13 in3.3 mm 0.60 in15.2 mm 0.13 in3.3 mm
03:10 AM 46.5°F8.1°C 44.9°F7.2°C 94% 5.7 mph WSW9.2 kmh WSW 10.0 mph16.1 kmh 30.16 in1021.3 mb 0.08 in2.0 mm 0.60 in15.2 mm 0.08 in2.0 mm
03:05 AM 46.6°F8.1°C 45.0°F7.2°C 94% 3.3 mph WSW5.3 kmh WSW 11.0 mph17.7 kmh 30.15 in1021.0 mb 0.03 in0.8 mm 0.12 in3.0 mm 0.03 in0.8 mm
03:00 AM 46.8°F8.2°C 45.2°F7.3°C 94% 0.8 mph WSW1.3 kmh WSW 11.0 mph17.7 kmh 30.15 in1021.0 mb 0.02 in0.5 mm 0.01 in0.3 mm 0.02 in0.5 mm
02:55 AM 46.9°F8.3°C 45.5°F7.5°C 95% Calm Calm 4.0 mph6.4 kmh 30.14 in1020.7 mb 0.01 in0.3 mm 0.12 in3.0 mm 0.01 in0.3 mm
02:50 AM 46.9°F8.3°C 45.5°F7.5°C 95% Calm Calm -- 30.14 in1020.7 mb 0.00 in0.0 mm 0.00 in0.0 mm 0.00 in0.0 mm
02:45 AM 46.8°F8.2°C 45.4°F7.4°C 95% Calm Calm 1.0 mph1.6 kmh 30.14 in1020.7 mb 0.00 in0.0 mm 0.00 in0.0 mm 0.00 in0.0 mm
02:40 AM 46.8°F8.2°C 45.4°F7.4°C 95% Calm Calm 1.0 mph1.6 kmh 30.14 in1020.7 mb 0.00 in0.0 mm 0.00 in0.0 mm 0.00 in0.0 mm
02:35 AM 46.8°F8.2°C 45.4°F7.4°C 95% Calm Calm -- 30.14 in1020.7 mb 0.00 in0.0 mm 0.00 in0.0 mm 0.00 in0.0 mm
02:30 AM 46.8°F8.2°C 45.4°F7.4°C 95% Calm Calm -- 30.14 in1020.7 mb 0.00 in0.0 mm 0.00 in0.0 mm 0.00 in0.0 mm
02:25 AM 46.8°F8.2°C 45.4°F7.4°C 95% Calm Calm -- 30.14 in1020.7 mb 0.00 in0.0 mm 0.00 in0.0 mm 0.00 in0.0 mm
02:20 AM 46.5°F8.1°C 45.1°F7.3°C 95% Calm Calm -- 30.14 in1020.7 mb 0.00 in0.0 mm 0.00 in0.0 mm 0.00 in0.0 mm
02:15 AM 46.3°F7.9°C 44.9°F7.2°C 95% Calm Calm -- 30.15 in1021.0 mb 0.00 in0.0 mm 0.00 in0.0 mm 0.00 in0.0 mm
02:10 AM 46.2°F7.9°C 44.8°F7.1°C 95% Calm Calm 1.0 mph1.6 kmh 30.15 in1021.0 mb 0.00 in0.0 mm 0.00 in0.0 mm 0.00 in0.0 mm
02:05 AM 46.1°F7.8°C 44.7°F7.1°C 95% Calm Calm 4.0 mph6.4 kmh 30.15 in1021.0 mb 0.00 in0.0 mm 0.00 in0.0 mm 0.00 in0.0 mm
02:00 AM 46.1°F7.8°C 44.7°F7.1°C 95% Calm Calm 4.0 mph6.4 kmh 30.15 in1021.0 mb 0.00 in0.0 mm 0.00 in0.0 mm 0.00 in0.0 mm
01:55 AM 46.0°F7.8°C 44.6°F7.0°C 95% Calm Calm 2.0 mph3.2 kmh 30.15 in1021.0 mb 0.00 in0.0 mm 0.00 in0.0 mm 0.00 in0.0 mm
01:50 AM 46.0°F7.8°C 44.6°F7.0°C 95% Calm Calm 2.0 mph3.2 kmh 30.16 in1021.3 mb 0.00 in0.0 mm 0.00 in0.0 mm 0.00 in0.0 mm
01:45 AM 45.9°F7.7°C 44.5°F6.9°C 95% Calm Calm -- 30.16 in1021.3 mb 0.00 in0.0 mm 0.00 in0.0 mm 0.00 in0.0 mm
01:40 AM 45.9°F7.7°C 44.3°F6.8°C 94% Calm Calm -- 30.17 in1021.7 mb 0.00 in0.0 mm 0.00 in0.0 mm 0.00 in0.0 mm
01:35 AM 46.0°F7.8°C 44.6°F7.0°C 95% Calm Calm -- 30.17 in1021.7 mb 0.00 in0.0 mm 0.00 in0.0 mm 0.00 in0.0 mm
01:30 AM 45.9°F7.7°C 44.3°F6.8°C 94% Calm Calm -- 30.18 in1022.0 mb 0.00 in0.0 mm 0.00 in0.0 mm 0.00 in0.0 mm
01:25 AM 45.9°F7.7°C 44.3°F6.8°C 94% Calm Calm -- 30.18 in1022.0 mb 0.00 in0.0 mm 0.00 in0.0 mm 0.00 in0.0 mm
01:20 AM 46.0°F7.8°C 44.4°F6.9°C 94% Calm Calm -- 30.18 in1022.0 mb 0.00 in0.0 mm 0.00 in0.0 mm 0.00 in0.0 mm
01:15 AM 46.1°F7.8°C 44.5°F6.9°C 94% Calm Calm -- 30.18 in1022.0 mb 0.00 in0.0 mm 0.00 in0.0 mm 0.00 in0.0 mm
01:10 AM 46.1°F7.8°C 44.5°F6.9°C 94% Calm Calm -- 30.18 in1022.0 mb 0.00 in0.0 mm 0.00 in0.0 mm 0.00 in0.0 mm
01:05 AM 46.2°F7.9°C 44.6°F7.0°C 94% Calm Calm -- 30.18 in1022.0 mb 0.00 in0.0 mm 0.00 in0.0 mm 0.00 in0.0 mm
01:00 AM 46.3°F7.9°C 44.7°F7.1°C 94% Calm Calm -- 30.18 in1022.0 mb 0.00 in0.0 mm 0.00 in0.0 mm 0.00 in0.0 mm
12:55 AM 46.3°F7.9°C 44.7°F7.1°C 94% Calm Calm -- 30.18 in1022.0 mb 0.00 in0.0 mm 0.00 in0.0 mm 0.00 in0.0 mm
12:50 AM 46.5°F8.1°C 44.9°F7.2°C 94% Calm Calm -- 30.18 in1022.0 mb 0.00 in0.0 mm 0.00 in0.0 mm 0.00 in0.0 mm
12:45 AM 46.4°F8.0°C 44.8°F7.1°C 94% Calm Calm -- 30.18 in1022.0 mb 0.00 in0.0 mm 0.00 in0.0 mm 0.00 in0.0 mm
12:40 AM 46.4°F8.0°C 44.8°F7.1°C 94% Calm Calm -- 30.18 in1022.0 mb 0.00 in0.0 mm 0.00 in0.0 mm 0.00 in0.0 mm
12:35 AM 46.4°F8.0°C 44.8°F7.1°C 94% Calm Calm -- 30.18 in1022.0 mb 0.00 in0.0 mm 0.00 in0.0 mm 0.00 in0.0 mm
12:30 AM 46.3°F7.9°C 44.7°F7.1°C 94% Calm Calm -- 30.19 in1022.4 mb 0.00 in0.0 mm 0.00 in0.0 mm 0.00 in0.0 mm
12:25 AM 46.3°F7.9°C 44.7°F7.1°C 94% Calm Calm -- 30.18 in1022.0 mb 0.00 in0.0 mm 0.00 in0.0 mm 0.00 in0.0 mm
12:20 AM 46.3°F7.9°C 44.7°F7.1°C 94% Calm Calm -- 30.18 in1022.0 mb 0.00 in0.0 mm 0.00 in0.0 mm 0.00 in0.0 mm
12:15 AM 46.3°F7.9°C 44.7°F7.1°C 94% Calm Calm -- 30.19 in1022.4 mb 0.00 in0.0 mm 0.00 in0.0 mm 0.00 in0.0 mm
12:10 AM 46.3°F7.9°C 44.7°F7.1°C 94% Calm Calm -- 30.19 in1022.4 mb 0.00 in0.0 mm 0.00 in0.0 mm 0.00 in0.0 mm
12:05 AM 46.3°F7.9°C 44.7°F7.1°C 94% Calm Calm -- 30.19 in1022.4 mb 0.00 in0.0 mm 0.00 in0.0 mm 0.00 in0.0 mm
12:00 AM 46.2°F7.9°C 44.6°F7.0°C 94% Calm Calm -- 30.19 in1022.4 mb 0.00 in0.0 mm 0.00 in0.0 mm 0.00 in0.0 mm